Time;durP1;ratioP1;P1;durP2;ratioP2;P2;SDS_P1;SDS_P2;PMS_P1;PMS_P2;Temp;Humidity;BMP_temperature;BMP_pressure;BME280_temperature;BME280_humidity;BME280_pressure;Samples;Min_cycle;Max_cycle;Signal;HPM_P1;HPM_P2
2021/08/29 00:02:17;;;;;;;;;;;15.90;99.90;;;;;;5028521;28;19909;-84
2021/08/29 00:04:42;;;;;;;;;;;15.80;99.90;;;;;;5025167;28;19932;-85
2021/08/29 00:07:10;;;;;;;;;;;15.90;99.90;;;;;;5028350;28;19935;-84
2021/08/29 00:09:38;;;;;;;;;;;15.80;99.90;;;;;;5017689;28;19918;-86
2021/08/29 00:12:06;;;;;;;;;;;15.80;99.90;;;;;;5012134;28;19917;-84
2021/08/29 00:14:31;;;;;;;;;;;15.80;99.90;;;;;;5022309;28;19967;-85
2021/08/29 00:16:59;;;;;;;;;;;15.90;99.90;;;;;;5026844;28;19921;-84
2021/08/29 00:19:24;;;;;;;;;;;15.90;99.90;;;;;;5030964;28;19909;-84
2021/08/29 00:21:50;;;;;;;;;;;15.90;99.90;;;;;;5028466;28;20038;-84
2021/08/29 00:24:18;;;;;;;;;;;15.90;99.90;;;;;;5023676;28;19957;-85
2021/08/29 00:26:43;;;;;;;;;;;15.90;99.90;;;;;;5008206;28;19921;-84
2021/08/29 00:29:08;;;;;;;;;;;15.90;99.90;;;;;;5003128;28;19964;-85
2021/08/29 00:31:34;;;;;;;;;;;15.90;99.90;;;;;;5025137;28;19973;-84
2021/08/29 00:34:02;;;;;;;;;;;15.90;99.90;;;;;;5024649;28;19917;-85
2021/08/29 00:36:27;;;;;;;;;;;15.90;99.90;;;;;;5025929;28;19920;-85
2021/08/29 00:38:53;;;;;;;;;;;16.10;99.90;;;;;;5025202;28;19905;-85
2021/08/29 00:41:18;;;;;;;;;;;15.80;99.90;;;;;;5023030;28;19949;-85
2021/08/29 00:43:46;;;;;;;;;;;15.80;99.90;;;;;;5022511;28;20038;-85
2021/08/29 00:46:14;;;;;;;;;;;15.90;99.90;;;;;;5027087;28;19927;-84
2021/08/29 00:48:44;;;;;;;;;;;16.00;99.90;;;;;;5027563;28;20356;-84
2021/08/29 00:51:09;;;;;;;;;;;15.90;99.90;;;;;;5027502;28;20251;-85
2021/08/29 00:53:34;;;;;;;;;;;15.90;99.90;;;;;;5025860;28;19913;-85
2021/08/29 00:56:02;;;;;;;;;;;16.20;99.90;;;;;;5026292;28;19925;-85
2021/08/29 00:58:28;;;;;;;;;;;16.10;99.90;;;;;;5017172;28;19967;-86
2021/08/29 01:00:55;;;;;;;;;;;15.90;99.90;;;;;;5024169;28;19913;-84
2021/08/29 01:03:25;;;;;;;;;;;15.90;99.90;;;;;;5018068;28;19917;-84
2021/08/29 01:06:13;;;;;;;;;;;15.90;99.90;;;;;;5029320;28;19924;-84
2021/08/29 01:08:40;;;;;;;;;;;15.90;99.90;;;;;;5031478;28;19909;-85
2021/08/29 01:11:21;;;;;;;;;;;15.90;99.90;;;;;;5031133;28;19909;-84
2021/08/29 01:13:47;;;;;;;;;;;15.90;99.90;;;;;;5014792;28;19917;-84
2021/08/29 01:16:17;;;;;;;;;;;15.90;99.90;;;;;;5028124;28;19999;-84
2021/08/29 01:18:45;;;;;;;;;;;15.90;99.90;;;;;;5030340;28;19920;-84
2021/08/29 01:21:15;;;;;;;;;;;15.80;99.90;;;;;;5033845;28;19994;-84
2021/08/29 01:23:42;;;;;;;;;;;15.90;99.90;;;;;;5028762;28;19975;-84
2021/08/29 01:26:28;;;;;;;;;;;15.80;99.90;;;;;;5022263;28;19913;-84
2021/08/29 01:28:58;;;;;;;;;;;15.80;99.90;;;;;;5000138;28;19909;-84
2021/08/29 01:31:25;;;;;;;;;;;15.80;99.90;;;;;;5023201;28;19952;-85
2021/08/29 01:33:51;;;;;;;;;;;15.80;99.90;;;;;;5023932;28;19917;-84
2021/08/29 01:36:17;;;;;;;;;;;15.80;99.90;;;;;;5024466;28;20147;-85
2021/08/29 01:38:43;;;;;;;;;;;15.80;99.90;;;;;;5025448;28;19952;-85
2021/08/29 01:41:12;;;;;;;;;;;15.80;99.90;;;;;;5024373;28;19913;-85
2021/08/29 01:43:38;;;;;;;;;;;15.80;99.90;;;;;;5025014;28;19983;-84
2021/08/29 01:46:03;;;;;;;;;;;15.80;99.90;;;;;;5014207;28;20249;-85
2021/08/29 01:48:31;;;;;;;;;;;15.80;99.90;;;;;;5027930;28;20025;-85
2021/08/29 01:51:03;;;;;;;;;;;15.80;99.90;;;;;;5027745;28;19913;-86
2021/08/29 01:53:29;;;;;;;;;;;15.80;99.90;;;;;;5027366;28;19923;-85
2021/08/29 01:55:55;;;;;;;;;;;15.80;99.90;;;;;;5022564;28;19980;-85
2021/08/29 01:58:20;;;;;;;;;;;15.80;99.90;;;;;;5023889;28;19976;-85
2021/08/29 02:00:53;;;;;;;;;;;15.80;99.90;;;;;;5019834;28;19913;-84
2021/08/29 02:03:19;;;;;;;;;;;15.80;99.90;;;;;;4996403;28;19954;-85
2021/08/29 02:05:45;;;;;;;;;;;15.70;99.90;;;;;;5019944;28;20277;-85
2021/08/29 02:08:12;;;;;;;;;;;15.80;99.90;;;;;;5022153;28;19921;-85
2021/08/29 02:10:38;;;;;;;;;;;15.80;99.90;;;;;;5022811;28;19922;-85
2021/08/29 02:13:07;;;;;;;;;;;15.80;99.90;;;;;;5025396;28;19919;-85
2021/08/29 02:15:34;;;;;;;;;;;15.80;99.90;;;;;;5020112;28;19917;-84
2021/08/29 02:18:03;;;;;;;;;;;16.00;99.90;;;;;;5015643;28;20348;-84
2021/08/29 02:20:29;;;;;;;;;;;16.00;99.90;;;;;;5020980;28;19913;-85
2021/08/29 02:22:55;;;;;;;;;;;15.80;99.90;;;;;;5008573;28;19917;-85
2021/08/29 02:25:24;;;;;;;;;;;16.00;99.90;;;;;;5020769;28;19951;-84
2021/08/29 02:27:49;;;;;;;;;;;15.80;99.90;;;;;;5020987;28;19909;-84
2021/08/29 02:30:15;;;;;;;;;;;15.80;99.90;;;;;;5020560;28;19931;-84
2021/08/29 02:32:41;;;;;;;;;;;15.80;99.90;;;;;;5028677;28;19956;-85
2021/08/29 02:35:07;;;;;;;;;;;15.80;99.90;;;;;;5006314;28;19931;-84
2021/08/29 02:37:36;;;;;;;;;;;15.80;99.90;;;;;;5021456;28;19917;-85
2021/08/29 02:40:03;;;;;;;;;;;16.10;99.90;;;;;;5001870;28;19928;-85
2021/08/29 02:42:29;;;;;;;;;;;15.80;99.90;;;;;;4999661;28;20015;-84
2021/08/29 02:44:57;;;;;;;;;;;15.80;99.90;;;;;;5025849;28;19952;-85
2021/08/29 02:47:23;;;;;;;;;;;15.80;99.90;;;;;;5016174;28;19917;-85
2021/08/29 02:49:49;;;;;;;;;;;15.80;99.90;;;;;;5023603;28;19951;-85
2021/08/29 02:52:16;;;;;;;;;;;15.80;99.90;;;;;;5021574;28;19929;-85
2021/08/29 02:54:42;;;;;;;;;;;15.80;99.90;;;;;;5020535;28;19970;-84
2021/08/29 02:57:09;;;;;;;;;;;15.70;99.90;;;;;;5022978;28;19985;-85
2021/08/29 02:59:35;;;;;;;;;;;15.70;99.90;;;;;;5024871;28;19912;-85
2021/08/29 03:02:00;;;;;;;;;;;15.70;99.90;;;;;;5027498;28;19966;-84
2021/08/29 03:04:26;;;;;;;;;;;15.70;99.90;;;;;;5019305;28;19969;-83
2021/08/29 03:06:52;;;;;;;;;;;15.70;99.90;;;;;;5004497;28;21676;-85
2021/08/29 03:09:17;;;;;;;;;;;15.70;99.90;;;;;;5020083;28;19921;-84
2021/08/29 03:11:43;;;;;;;;;;;15.70;99.90;;;;;;5025253;28;19921;-85
2021/08/29 03:14:08;;;;;;;;;;;15.70;99.90;;;;;;5028709;28;20432;-85
2021/08/29 03:16:36;;;;;;;;;;;15.70;99.90;;;;;;5023157;28;19987;-85
2021/08/29 03:19:02;;;;;;;;;;;15.90;99.90;;;;;;5025907;28;19988;-84
2021/08/29 03:21:27;;;;;;;;;;;15.70;99.90;;;;;;5026465;28;20357;-84
2021/08/29 03:23:55;;;;;;;;;;;15.70;99.90;;;;;;5023492;28;19993;-85
2021/08/29 03:26:23;;;;;;;;;;;15.70;99.90;;;;;;5021536;28;20336;-84
2021/08/29 03:28:48;;;;;;;;;;;15.70;99.90;;;;;;5008181;28;19931;-84
2021/08/29 03:31:17;;;;;;;;;;;15.70;99.90;;;;;;5028911;28;19913;-85
2021/08/29 03:33:44;;;;;;;;;;;15.50;99.90;;;;;;5028648;28;19913;-85
2021/08/29 03:36:13;;;;;;;;;;;15.70;99.90;;;;;;5023872;28;20360;-85
2021/08/29 03:38:38;;;;;;;;;;;15.90;99.90;;;;;;5026284;28;19959;-84
2021/08/29 03:41:04;;;;;;;;;;;15.70;99.90;;;;;;5026091;28;19924;-85
2021/08/29 03:43:31;;;;;;;;;;;15.70;99.90;;;;;;5006284;28;19925;-85
2021/08/29 03:45:56;;;;;;;;;;;15.70;99.90;;;;;;5008573;28;19921;-85
2021/08/29 03:48:24;;;;;;;;;;;15.70;99.90;;;;;;5019381;28;20052;-85
2021/08/29 03:50:50;;;;;;;;;;;15.70;99.90;;;;;;5017355;28;19956;-85
2021/08/29 03:53:16;;;;;;;;;;;15.70;99.90;;;;;;5011938;28;20248;-84
2021/08/29 03:55:43;;;;;;;;;;;15.70;99.90;;;;;;5019276;28;19924;-85
2021/08/29 03:58:12;;;;;;;;;;;15.70;99.90;;;;;;4999416;28;19916;-84
2021/08/29 04:00:39;;;;;;;;;;;15.70;99.90;;;;;;5020293;28;19909;-84
2021/08/29 04:03:05;;;;;;;;;;;15.70;99.90;;;;;;5019752;28;19928;-85
2021/08/29 04:05:31;;;;;;;;;;;15.70;99.90;;;;;;5022393;28;19939;-84
2021/08/29 04:07:59;;;;;;;;;;;15.70;99.90;;;;;;5021819;28;20435;-85
2021/08/29 04:10:25;;;;;;;;;;;15.70;99.90;;;;;;5008333;28;20242;-86
2021/08/29 04:12:51;;;;;;;;;;;15.70;99.90;;;;;;5007890;28;19956;-85
2021/08/29 04:15:17;;;;;;;;;;;15.70;99.90;;;;;;5023976;28;20012;-84
2021/08/29 04:17:47;;;;;;;;;;;15.70;99.90;;;;;;5021493;28;19909;-84
2021/08/29 04:20:13;;;;;;;;;;;15.70;99.90;;;;;;5023420;28;19947;-84
2021/08/29 04:22:39;;;;;;;;;;;15.70;99.90;;;;;;5023064;28;19913;-84
2021/08/29 04:25:07;;;;;;;;;;;15.70;99.90;;;;;;5024594;28;20620;-83
2021/08/29 04:27:32;;;;;;;;;;;15.70;99.90;;;;;;5021011;28;19909;-84
2021/08/29 04:30:00;;;;;;;;;;;15.70;99.90;;;;;;5014622;28;19914;-85
2021/08/29 04:32:29;;;;;;;;;;;15.70;99.90;;;;;;5019693;28;19958;-85
2021/08/29 04:34:54;;;;;;;;;;;15.70;99.90;;;;;;5018149;28;20392;-84
2021/08/29 04:37:20;;;;;;;;;;;15.70;99.90;;;;;;5021191;28;19928;-85
2021/08/29 04:39:45;;;;;;;;;;;15.70;99.90;;;;;;5005273;28;19959;-84
2021/08/29 04:42:11;;;;;;;;;;;15.70;99.90;;;;;;5021974;28;19924;-85
2021/08/29 04:44:36;;;;;;;;;;;15.70;99.90;;;;;;5023869;28;19924;-87
2021/08/29 04:47:02;;;;;;;;;;;15.70;99.90;;;;;;5017758;28;19924;-86
2021/08/29 04:49:27;;;;;;;;;;;15.70;99.90;;;;;;5004484;28;19944;-85
2021/08/29 04:51:52;;;;;;;;;;;15.70;99.90;;;;;;5004979;28;20272;-86
2021/08/29 04:54:25;;;;;;;;;;;15.70;99.90;;;;;;5023004;28;19921;-85
2021/08/29 04:56:53;;;;;;;;;;;15.70;99.90;;;;;;5008659;28;19967;-85
2021/08/29 04:59:19;;;;;;;;;;;16.00;99.90;;;;;;5021227;28;20032;-85
2021/08/29 05:01:44;;;;;;;;;;;15.70;99.90;;;;;;5014976;28;20402;-84
2021/08/29 05:04:10;;;;;;;;;;;15.70;99.90;;;;;;5019271;28;19913;-86
2021/08/29 05:06:37;;;;;;;;;;;15.70;99.90;;;;;;5019356;28;20550;-85
2021/08/29 05:09:03;;;;;;;;;;;15.70;99.90;;;;;;5019549;28;21991;-86
2021/08/29 05:11:31;;;;;;;;;;;15.70;99.90;;;;;;5005497;28;19941;-85
2021/08/29 05:13:56;;;;;;;;;;;15.80;99.90;;;;;;5021483;28;19954;-86
2021/08/29 05:16:22;;;;;;;;;;;15.80;99.90;;;;;;5020352;28;19920;-85
2021/08/29 05:18:47;;;;;;;;;;;15.80;99.90;;;;;;5021408;28;19916;-86
2021/08/29 05:21:13;;;;;;;;;;;15.80;99.90;;;;;;5011492;28;19977;-85
2021/08/29 05:23:38;;;;;;;;;;;16.10;99.90;;;;;;5023593;28;19910;-85
2021/08/29 05:26:03;;;;;;;;;;;15.70;99.90;;;;;;5022173;28;19929;-84
2021/08/29 05:28:29;;;;;;;;;;;15.70;99.90;;;;;;5025447;28;19933;-86
2021/08/29 05:30:54;;;;;;;;;;;15.70;99.90;;;;;;5020154;28;20031;-84
2021/08/29 05:33:23;;;;;;;;;;;15.70;99.90;;;;;;5004726;28;19917;-85
2021/08/29 05:35:48;;;;;;;;;;;15.80;99.90;;;;;;5015911;28;20023;-85
2021/08/29 05:38:14;;;;;;;;;;;15.70;99.90;;;;;;5025586;28;20024;-85
2021/08/29 05:40:39;;;;;;;;;;;15.80;99.90;;;;;;5004960;28;19909;-86
2021/08/29 05:43:07;;;;;;;;;;;16.10;99.90;;;;;;5025949;28;19944;-85
2021/08/29 05:45:32;;;;;;;;;;;15.80;99.90;;;;;;5026338;28;19983;-85
2021/08/29 05:48:00;;;;;;;;;;;15.80;99.90;;;;;;5028772;28;19916;-85
2021/08/29 05:50:26;;;;;;;;;;;15.80;99.90;;;;;;5026149;28;19917;-84
2021/08/29 05:52:51;;;;;;;;;;;15.80;99.90;;;;;;5028041;28;19923;-85
2021/08/29 05:55:19;;;;;;;;;;;15.80;99.90;;;;;;5028591;28;19924;-85
2021/08/29 05:57:45;;;;;;;;;;;15.90;99.90;;;;;;5027146;28;19955;-84
2021/08/29 06:00:13;;;;;;;;;;;15.80;99.90;;;;;;5029227;28;21447;-84
2021/08/29 06:02:39;;;;;;;;;;;15.90;99.90;;;;;;5025164;28;19913;-83
2021/08/29 06:05:04;;;;;;;;;;;15.90;99.90;;;;;;5010153;28;19982;-84
2021/08/29 06:07:30;;;;;;;;;;;15.90;99.90;;;;;;5024670;28;20294;-85
2021/08/29 06:09:55;;;;;;;;;;;16.00;99.90;;;;;;5029164;28;19912;-85
2021/08/29 06:12:21;;;;;;;;;;;15.90;99.90;;;;;;5029924;28;19917;-85
2021/08/29 06:14:46;;;;;;;;;;;16.00;99.90;;;;;;5027254;28;19920;-85
2021/08/29 06:17:12;;;;;;;;;;;16.00;99.90;;;;;;5026026;28;19909;-85
2021/08/29 06:19:37;;;;;;;;;;;16.00;99.90;;;;;;5010501;28;19919;-84
2021/08/29 06:22:03;;;;;;;;;;;16.00;99.90;;;;;;5012628;28;19913;-84
2021/08/29 06:24:28;;;;;;;;;;;16.00;99.90;;;;;;5024837;28;20381;-86
2021/08/29 06:26:54;;;;;;;;;;;16.00;99.90;;;;;;5015367;28;19905;-83
2021/08/29 06:29:19;;;;;;;;;;;16.00;99.90;;;;;;5027734;28;19924;-84
2021/08/29 06:31:45;;;;;;;;;;;16.00;99.90;;;;;;5010580;28;20019;-84
2021/08/29 06:34:10;;;;;;;;;;;16.10;99.90;;;;;;5032793;28;19963;-85
2021/08/29 06:36:36;;;;;;;;;;;16.00;99.90;;;;;;5025449;28;19917;-85
2021/08/29 06:39:01;;;;;;;;;;;16.10;99.90;;;;;;5030721;28;19944;-85
2021/08/29 06:41:27;;;;;;;;;;;16.10;99.90;;;;;;5029886;28;19933;-84
2021/08/29 06:43:53;;;;;;;;;;;16.10;99.90;;;;;;5026847;28;19917;-84
2021/08/29 06:46:19;;;;;;;;;;;16.10;99.90;;;;;;5025744;28;20001;-85
2021/08/29 06:48:44;;;;;;;;;;;16.10;99.90;;;;;;5030988;28;20078;-86
2021/08/29 06:51:10;;;;;;;;;;;16.40;99.90;;;;;;5027517;28;19917;-86
2021/08/29 06:53:35;;;;;;;;;;;16.20;99.90;;;;;;5023479;28;20301;-85
2021/08/29 06:56:01;;;;;;;;;;;16.20;99.90;;;;;;5009843;28;19976;-87
2021/08/29 06:58:26;;;;;;;;;;;16.20;99.90;;;;;;5023255;28;20007;-87
2021/08/29 07:00:52;;;;;;;;;;;16.20;99.90;;;;;;5021782;28;19925;-87
2021/08/29 07:03:17;;;;;;;;;;;16.50;99.90;;;;;;5022509;28;19936;-87
2021/08/29 07:05:43;;;;;;;;;;;16.30;99.90;;;;;;5023289;28;19919;-87
2021/08/29 07:08:08;;;;;;;;;;;16.30;99.90;;;;;;5032273;28;19913;-85
2021/08/29 07:10:34;;;;;;;;;;;16.30;99.90;;;;;;5022665;28;19913;-85
2021/08/29 07:12:59;;;;;;;;;;;16.30;99.90;;;;;;5022471;28;19909;-83
2021/08/29 07:15:25;;;;;;;;;;;16.30;99.90;;;;;;5026203;28;20623;-86
2021/08/29 07:17:51;;;;;;;;;;;16.40;99.90;;;;;;5030665;28;19917;-85
2021/08/29 07:20:17;;;;;;;;;;;16.50;99.90;;;;;;5026541;28;19956;-85
2021/08/29 07:22:42;;;;;;;;;;;16.50;99.90;;;;;;5026497;28;19912;-86
2021/08/29 07:25:08;;;;;;;;;;;16.50;99.90;;;;;;5026169;28;19920;-85
2021/08/29 07:27:34;;;;;;;;;;;16.60;99.90;;;;;;5031084;28;19919;-85
2021/08/29 07:29:59;;;;;;;;;;;16.60;99.90;;;;;;5026432;28;19949;-85
2021/08/29 07:32:25;;;;;;;;;;;16.60;99.90;;;;;;5019192;28;19913;-85
2021/08/29 07:34:50;;;;;;;;;;;16.60;99.90;;;;;;5020834;28;20401;-85
2021/08/29 07:37:15;;;;;;;;;;;16.70;99.90;;;;;;5020960;28;19976;-85
2021/08/29 07:39:41;;;;;;;;;;;16.70;99.90;;;;;;5014208;28;20542;-88
2021/08/29 07:42:06;;;;;;;;;;;16.70;99.90;;;;;;5007328;28;20007;-85
2021/08/29 07:44:32;;;;;;;;;;;16.80;99.90;;;;;;5018224;28;19940;-85
2021/08/29 07:46:57;;;;;;;;;;;16.80;99.90;;;;;;5001654;28;19912;-84
2021/08/29 07:49:23;;;;;;;;;;;16.90;99.90;;;;;;5020351;28;19940;-85
2021/08/29 07:51:48;;;;;;;;;;;16.90;99.90;;;;;;4997250;28;19931;-85
2021/08/29 07:54:13;;;;;;;;;;;16.90;99.90;;;;;;5005696;28;19972;-83
2021/08/29 07:56:39;;;;;;;;;;;16.90;99.90;;;;;;5018508;28;19913;-83
2021/08/29 07:59:04;;;;;;;;;;;16.90;99.90;;;;;;5005308;28;20377;-84
2021/08/29 08:01:30;;;;;;;;;;;17.00;99.90;;;;;;5017423;28;19917;-83
2021/08/29 08:03:55;;;;;;;;;;;17.30;99.90;;;;;;5029605;28;19917;-82
2021/08/29 08:06:21;;;;;;;;;;;17.00;99.90;;;;;;5027305;28;19917;-88
2021/08/29 08:08:46;;;;;;;;;;;17.10;99.90;;;;;;5028440;28;19920;-86
2021/08/29 08:11:12;;;;;;;;;;;17.00;99.90;;;;;;5030006;28;20495;-84
2021/08/29 08:13:37;;;;;;;;;;;17.10;99.90;;;;;;5025310;28;19909;-82
2021/08/29 08:16:03;;;;;;;;;;;17.10;99.90;;;;;;5031289;28;19921;-85
2021/08/29 08:18:31;;;;;;;;;;;17.20;99.90;;;;;;5027550;28;19993;-90
2021/08/29 08:20:57;;;;;;;;;;;17.30;99.90;;;;;;5024932;28;19999;-90
2021/08/29 08:23:24;;;;;;;;;;;17.20;99.90;;;;;;5025557;28;19959;-90
2021/08/29 08:25:50;;;;;;;;;;;17.30;99.90;;;;;;5018412;28;19936;-90
2021/08/29 08:28:15;;;;;;;;;;;17.30;99.90;;;;;;5004773;28;19917;-90
2021/08/29 08:30:41;;;;;;;;;;;17.40;99.90;;;;;;5025832;28;19917;-84
2021/08/29 08:33:06;;;;;;;;;;;17.70;99.90;;;;;;5015135;28;20685;-86
2021/08/29 08:35:32;;;;;;;;;;;17.40;99.90;;;;;;5022063;28;19926;-85
2021/08/29 08:37:57;;;;;;;;;;;17.50;99.90;;;;;;5029339;28;19967;-84
2021/08/29 08:40:23;;;;;;;;;;;17.50;99.90;;;;;;5011926;28;20197;-85
2021/08/29 08:42:49;;;;;;;;;;;17.60;99.90;;;;;;5007696;28;19916;-85
2021/08/29 08:45:14;;;;;;;;;;;17.70;99.90;;;;;;5032248;28;19913;-85
2021/08/29 08:47:42;;;;;;;;;;;17.70;99.90;;;;;;5020290;28;20352;-86
2021/08/29 08:50:08;;;;;;;;;;;17.80;99.90;;;;;;5024451;28;20039;-86
2021/08/29 08:52:35;;;;;;;;;;;17.90;99.90;;;;;;5024418;28;20270;-86
2021/08/29 08:55:01;;;;;;;;;;;17.90;99.90;;;;;;5021244;28;21314;-87
2021/08/29 08:57:26;;;;;;;;;;;18.20;99.90;;;;;;5022440;28;19926;-87
2021/08/29 08:59:52;;;;;;;;;;;18.00;99.90;;;;;;5020296;28;19909;-86
2021/08/29 09:02:19;;;;;;;;;;;18.00;99.90;;;;;;5026954;28;19929;-86
2021/08/29 09:04:48;;;;;;;;;;;18.00;99.90;;;;;;5019298;28;20447;-85
2021/08/29 09:07:13;;;;;;;;;;;18.00;99.90;;;;;;5000744;28;20033;-84
2021/08/29 09:09:39;;;;;;;;;;;18.10;99.90;;;;;;5022315;28;20012;-85
2021/08/29 09:12:08;;;;;;;;;;;18.10;99.90;;;;;;5030508;28;19921;-84
2021/08/29 09:14:37;;;;;;;;;;;18.20;99.90;;;;;;5027193;28;19943;-83
2021/08/29 09:17:02;;;;;;;;;;;18.20;99.90;;;;;;5025508;28;19972;-83
2021/08/29 09:19:28;;;;;;;;;;;18.30;99.90;;;;;;5027549;28;19936;-82
2021/08/29 09:21:57;;;;;;;;;;;18.40;99.90;;;;;;5032632;28;19948;-84
2021/08/29 09:24:28;;;;;;;;;;;18.40;99.90;;;;;;5025209;28;19985;-83
2021/08/29 09:26:58;;;;;;;;;;;18.40;99.90;;;;;;5029727;28;19909;-83
2021/08/29 09:29:24;;;;;;;;;;;18.40;99.90;;;;;;5014885;28;19956;-84
2021/08/29 09:31:50;;;;;;;;;;;18.40;99.90;;;;;;5032205;28;20172;-83
2021/08/29 09:34:18;;;;;;;;;;;18.60;99.90;;;;;;5024496;28;19909;-83
2021/08/29 09:36:44;;;;;;;;;;;18.40;99.90;;;;;;5010944;28;19921;-82
2021/08/29 09:39:09;;;;;;;;;;;18.40;99.90;;;;;;5028936;28;19952;-82
2021/08/29 09:41:35;;;;;;;;;;;18.50;99.90;;;;;;5032466;28;19928;-83
2021/08/29 09:44:04;;;;;;;;;;;18.50;99.90;;;;;;5034758;28;19928;-83
2021/08/29 09:46:30;;;;;;;;;;;18.60;99.90;;;;;;5031535;28;20351;-83
2021/08/29 09:48:55;;;;;;;;;;;18.60;99.90;;;;;;5035076;28;19971;-84
2021/08/29 09:51:24;;;;;;;;;;;18.70;99.90;;;;;;5016287;28;19923;-81
2021/08/29 09:53:50;;;;;;;;;;;18.70;99.90;;;;;;5014193;28;19921;-84
2021/08/29 09:56:19;;;;;;;;;;;18.70;99.90;;;;;;5025997;28;19920;-84
2021/08/29 09:58:45;;;;;;;;;;;18.70;99.90;;;;;;5031503;28;19920;-84
2021/08/29 10:01:14;;;;;;;;;;;18.70;99.90;;;;;;5032671;28;20019;-83
2021/08/29 10:03:41;;;;;;;;;;;18.80;99.90;;;;;;5031841;28;19909;-83
2021/08/29 10:06:27;;;;;;;;;;;18.80;99.90;;;;;;5038810;28;19913;-83
2021/08/29 10:08:59;;;;;;;;;;;18.80;99.90;;;;;;5034081;28;20304;-83
2021/08/29 10:11:26;;;;;;;;;;;18.80;99.90;;;;;;5029194;28;19917;-83
2021/08/29 10:13:52;;;;;;;;;;;18.80;99.90;;;;;;5034408;28;19932;-82
2021/08/29 10:16:18;;;;;;;;;;;18.60;99.90;;;;;;5036643;28;19961;-82
2021/08/29 10:18:47;;;;;;;;;;;18.80;99.90;;;;;;5035488;28;19905;-83
2021/08/29 10:21:15;;;;;;;;;;;18.80;99.90;;;;;;5036540;28;19910;-82
2021/08/29 10:23:41;;;;;;;;;;;19.00;99.90;;;;;;5020237;28;20050;-82
2021/08/29 10:26:08;;;;;;;;;;;18.80;99.90;;;;;;5036245;28;19944;-82
2021/08/29 10:28:37;;;;;;;;;;;18.70;99.90;;;;;;5036162;28;19923;-82
2021/08/29 10:31:04;;;;;;;;;;;18.80;99.90;;;;;;5038136;28;19963;-82
2021/08/29 10:33:30;;;;;;;;;;;18.80;99.90;;;;;;5018721;28;19917;-78
2021/08/29 10:35:56;;;;;;;;;;;18.90;99.90;;;;;;5026632;28;19925;-77
2021/08/29 10:38:21;;;;;;;;;;;19.00;99.90;;;;;;5022481;28;19958;-77
2021/08/29 10:40:49;;;;;;;;;;;19.10;99.90;;;;;;5019093;28;19913;-77
2021/08/29 10:43:15;;;;;;;;;;;19.00;99.90;;;;;;5022841;28;19917;-82
2021/08/29 10:45:40;;;;;;;;;;;19.00;99.90;;;;;;5023429;28;19912;-82
2021/08/29 10:48:07;;;;;;;;;;;19.00;99.90;;;;;;5035446;28;19972;-82
2021/08/29 10:50:33;;;;;;;;;;;19.00;99.90;;;;;;5036626;28;19987;-83
2021/08/29 10:52:59;;;;;;;;;;;19.10;99.90;;;;;;5036153;28;19917;-82
2021/08/29 10:55:28;;;;;;;;;;;19.20;99.90;;;;;;5033726;28;19921;-82
2021/08/29 10:57:59;;;;;;;;;;;19.40;99.90;;;;;;5033975;28;19917;-83
2021/08/29 11:00:26;;;;;;;;;;;19.20;99.90;;;;;;5033943;28;19952;-82
2021/08/29 11:02:52;;;;;;;;;;;19.30;99.90;;;;;;5034471;28;19939;-82
2021/08/29 11:05:29;;;;;;;;;;;19.30;99.90;;;;;;5036487;28;19913;-82
2021/08/29 11:07:58;;;;;;;;;;;19.30;99.90;;;;;;5031662;28;19976;-82
2021/08/29 11:10:38;;;;;;;;;;;19.20;99.90;;;;;;5031910;28;19917;-82
2021/08/29 11:13:23;;;;;;;;;;;19.30;99.90;;;;;;5033355;28;19976;-82
2021/08/29 11:16:11;;;;;;;;;;;19.30;99.90;;;;;;5034875;28;19917;-82
2021/08/29 11:18:55;;;;;;;;;;;19.30;99.90;;;;;;5037137;28;19975;-82
2021/08/29 11:21:21;;;;;;;;;;;19.50;99.90;;;;;;5032674;28;19917;-82
2021/08/29 11:23:46;;;;;;;;;;;19.50;99.90;;;;;;5036776;28;19997;-82
2021/08/29 11:26:28;;;;;;;;;;;19.50;99.90;;;;;;5035714;28;19927;-82
2021/08/29 11:28:54;;;;;;;;;;;19.60;99.90;;;;;;5032732;28;19913;-82
2021/08/29 11:31:38;;;;;;;;;;;19.80;99.90;;;;;;5033080;28;19996;-82
2021/08/29 11:34:07;;;;;;;;;;;19.70;99.90;;;;;;5027139;28;19920;-82
2021/08/29 11:36:32;;;;;;;;;;;19.80;99.90;;;;;;5027040;28;20129;-82
2021/08/29 11:38:58;;;;;;;;;;;19.70;99.90;;;;;;5028795;28;19984;-82
2021/08/29 11:41:23;;;;;;;;;;;19.60;99.90;;;;;;5028842;28;19909;-83
2021/08/29 11:43:50;;;;;;;;;;;19.60;99.90;;;;;;5009285;28;21475;-82
2021/08/29 11:46:18;;;;;;;;;;;19.60;99.90;;;;;;5027406;28;19921;-80
2021/08/29 11:48:47;;;;;;;;;;;19.60;99.90;;;;;;5024119;28;20537;-81
2021/08/29 11:51:13;;;;;;;;;;;19.60;99.90;;;;;;5015710;28;21274;-79
2021/08/29 11:53:45;;;;;;;;;;;19.60;99.90;;;;;;5014290;28;20238;-80
2021/08/29 11:56:17;;;;;;;;;;;19.70;99.90;;;;;;5019814;28;22247;-79
2021/08/29 11:58:48;;;;;;;;;;;19.70;99.90;;;;;;5018086;28;19912;-81
2021/08/29 12:01:15;;;;;;;;;;;19.80;99.90;;;;;;5018692;28;19921;-80
2021/08/29 12:03:41;;;;;;;;;;;19.80;99.90;;;;;;5023202;28;20230;-80
2021/08/29 12:06:13;;;;;;;;;;;19.70;99.90;;;;;;5010364;28;19917;-80
2021/08/29 12:08:46;;;;;;;;;;;19.70;99.90;;;;;;5016236;28;20011;-82
2021/08/29 12:11:12;;;;;;;;;;;19.60;99.90;;;;;;5039353;28;19995;-81
2021/08/29 12:13:38;;;;;;;;;;;19.60;99.90;;;;;;5028509;28;19924;-82
2021/08/29 12:16:04;;;;;;;;;;;19.50;99.90;;;;;;5011513;28;19917;-80
2021/08/29 12:18:37;;;;;;;;;;;19.50;99.90;;;;;;5013845;28;21215;-81
2021/08/29 12:21:07;;;;;;;;;;;19.50;99.90;;;;;;5031057;28;19917;-80
2021/08/29 12:23:34;;;;;;;;;;;19.50;99.90;;;;;;5034065;28;19976;-81
2021/08/29 12:26:02;;;;;;;;;;;19.50;99.90;;;;;;5031604;28;22902;-82
2021/08/29 12:28:28;;;;;;;;;;;19.50;99.90;;;;;;5031075;28;20466;-82
2021/08/29 12:30:55;;;;;;;;;;;19.50;99.90;;;;;;5028172;28;20039;-82
2021/08/29 12:33:21;;;;;;;;;;;19.50;99.90;;;;;;5013392;28;19912;-82
2021/08/29 12:35:47;;;;;;;;;;;19.50;99.90;;;;;;5034163;28;19932;-83
2021/08/29 12:38:23;;;;;;;;;;;19.50;99.90;;;;;;5028129;28;19893;-83
2021/08/29 12:40:49;;;;;;;;;;;19.50;99.90;;;;;;5033482;28;19913;-82
2021/08/29 12:43:15;;;;;;;;;;;19.50;99.90;;;;;;5032036;28;19940;-82
2021/08/29 12:45:40;;;;;;;;;;;19.50;99.90;;;;;;5029937;28;19917;-82
2021/08/29 12:48:06;;;;;;;;;;;19.40;99.90;;;;;;5037020;28;20355;-82
2021/08/29 12:50:36;;;;;;;;;;;19.50;99.90;;;;;;5035266;28;19924;-82
2021/08/29 12:53:04;;;;;;;;;;;19.60;99.90;;;;;;5036993;28;20334;-82
2021/08/29 12:55:30;;;;;;;;;;;19.30;99.90;;;;;;5037533;28;19928;-82
2021/08/29 12:58:00;;;;;;;;;;;19.20;99.90;;;;;;5039114;28;19913;-82
2021/08/29 13:00:39;;;;;;;;;;;19.10;99.90;;;;;;5034540;28;19992;-82
2021/08/29 13:03:05;;;;;;;;;;;19.10;99.90;;;;;;5035268;28;19913;-82
2021/08/29 13:05:37;;;;;;;;;;;19.10;99.90;;;;;;5033389;28;19981;-82
2021/08/29 13:08:03;;;;;;;;;;;19.00;99.90;;;;;;5034906;28;20320;-82
2021/08/29 13:10:29;;;;;;;;;;;19.00;99.90;;;;;;5039424;28;19972;-82
2021/08/29 13:13:11;;;;;;;;;;;19.20;99.90;;;;;;5034045;28;19955;-84
2021/08/29 13:15:38;;;;;;;;;;;18.90;99.90;;;;;;5016948;28;19925;-85
2021/08/29 13:18:04;;;;;;;;;;;18.90;99.90;;;;;;5036096;28;19909;-82
2021/08/29 13:20:41;;;;;;;;;;;18.90;99.90;;;;;;5018166;28;19917;-82
2021/08/29 13:23:27;;;;;;;;;;;18.90;99.90;;;;;;5023676;28;20337;-82
2021/08/29 13:25:53;;;;;;;;;;;18.90;99.90;;;;;;5030910;28;19921;-82
2021/08/29 13:28:19;;;;;;;;;;;18.90;99.90;;;;;;5015752;28;19967;-83
2021/08/29 13:30:45;;;;;;;;;;;18.90;99.90;;;;;;5008445;28;19933;-83
2021/08/29 13:33:16;;;;;;;;;;;18.90;99.90;;;;;;5029966;28;19940;-83
2021/08/29 13:35:42;;;;;;;;;;;19.00;99.90;;;;;;5034517;28;19935;-80
2021/08/29 13:38:09;;;;;;;;;;;19.00;99.90;;;;;;5031370;28;19944;-82
2021/08/29 13:40:35;;;;;;;;;;;19.00;99.90;;;;;;5024971;28;19912;-82
2021/08/29 13:43:03;;;;;;;;;;;18.90;99.90;;;;;;5034965;28;19917;-82
2021/08/29 13:45:33;;;;;;;;;;;18.90;99.90;;;;;;5034833;28;20531;-82
2021/08/29 13:47:59;;;;;;;;;;;18.90;99.90;;;;;;5036789;28;19988;-81
2021/08/29 13:50:25;;;;;;;;;;;18.90;99.90;;;;;;5023284;28;19935;-82
2021/08/29 13:53:03;;;;;;;;;;;18.90;99.90;;;;;;5033040;28;19970;-81
2021/08/29 13:55:30;;;;;;;;;;;18.80;99.90;;;;;;5031230;28;19920;-82
2021/08/29 13:57:55;;;;;;;;;;;18.90;99.90;;;;;;5030144;28;19920;-83
2021/08/29 14:00:21;;;;;;;;;;;18.80;99.90;;;;;;5026741;28;19917;-82
2021/08/29 14:02:46;;;;;;;;;;;18.80;99.90;;;;;;5020968;28;19912;-84
2021/08/29 14:05:14;;;;;;;;;;;18.80;99.90;;;;;;5011053;28;20315;-82
2021/08/29 14:07:39;;;;;;;;;;;18.80;99.90;;;;;;5031794;28;19908;-82
2021/08/29 14:10:05;;;;;;;;;;;19.10;99.90;;;;;;5035181;28;19956;-82
2021/08/29 14:12:30;;;;;;;;;;;19.00;99.90;;;;;;5031587;28;19926;-85
2021/08/29 14:14:56;;;;;;;;;;;19.00;99.90;;;;;;5023826;28;19931;-85
2021/08/29 14:17:21;;;;;;;;;;;19.00;99.90;;;;;;5023517;28;19976;-84